createdAt,value
2018-11-02T00:02:40.493Z,101024.50
2018-11-02T00:06:44.437Z,101032.50
2018-11-02T00:11:04.924Z,101025.30
2018-11-02T00:15:08.808Z,101038.54
2018-11-02T00:19:12.833Z,101035.92
2018-11-02T00:23:17.068Z,101044.68
2018-11-02T00:27:20.977Z,101034.98
2018-11-02T00:31:25.158Z,101052.03
2018-11-02T00:35:29.144Z,101051.65
2018-11-02T00:39:33.034Z,101052.97
2018-11-02T00:43:37.241Z,101050.85
2018-11-02T00:47:41.508Z,101055.97
2018-11-02T00:51:45.495Z,101063.78
2018-11-02T00:55:49.568Z,101064.07
2018-11-02T00:59:53.859Z,101069.78
2018-11-02T01:03:58.362Z,101068.47
2018-11-02T01:08:02.662Z,101078.55
2018-11-02T01:12:07.368Z,101077.56
2018-11-02T01:16:11.628Z,101082.98
2018-11-02T01:20:15.868Z,101088.23
2018-11-02T01:24:20.299Z,101100.03
2018-11-02T01:28:24.478Z,101102.14
2018-11-02T01:32:29.308Z,101096.52
2018-11-02T01:36:33.781Z,101106.08
2018-11-02T01:40:38.521Z,101106.50
2018-11-02T01:44:42.958Z,101109.92
2018-11-02T01:48:47.380Z,101108.98
2018-11-02T01:52:51.736Z,101110.09
2018-11-02T01:56:56.140Z,101107.23
2018-11-02T02:01:00.423Z,101115.48
2018-11-02T02:05:06.682Z,101124.45
2018-11-02T02:09:11.885Z,101136.71
2018-11-02T02:13:16.381Z,101153.21
2018-11-02T02:17:20.574Z,101161.16
2018-11-02T02:21:24.797Z,101176.77
2018-11-02T02:25:29.841Z,101187.30
2018-11-02T02:29:34.576Z,101188.98
2018-11-02T02:33:38.771Z,101183.66
2018-11-02T02:37:42.987Z,101206.41
2018-11-02T02:41:47.181Z,101212.12
2018-11-02T02:45:51.595Z,101223.50
2018-11-02T02:49:55.608Z,101237.12
2018-11-02T02:53:59.669Z,101248.41
2018-11-02T02:58:03.679Z,101265.58
2018-11-02T03:02:08.097Z,101273.95
2018-11-02T03:06:12.351Z,101276.22
2018-11-02T03:10:16.952Z,101284.05
2018-11-02T03:14:21.398Z,101280.63
2018-11-02T03:18:25.956Z,101301.78
2018-11-02T03:22:30.203Z,101310.00
2018-11-02T03:26:34.700Z,101314.45
2018-11-02T03:30:38.902Z,101326.58
2018-11-02T03:34:43.153Z,101336.34
2018-11-02T03:38:47.326Z,101350.95
2018-11-02T03:42:51.350Z,101365.17
2018-11-02T03:46:55.408Z,101380.59
2018-11-02T03:50:59.551Z,101394.23
2018-11-02T03:55:04.373Z,101404.75
2018-11-02T03:59:08.632Z,101401.84
2018-11-02T04:03:12.732Z,101415.52
2018-11-02T04:07:16.992Z,101417.33
2018-11-02T04:11:20.957Z,101436.94
2018-11-02T04:15:25.148Z,101443.95
2018-11-02T04:19:29.464Z,101461.38
2018-11-02T04:23:33.967Z,101471.11
2018-11-02T04:27:38.063Z,101475.56
2018-11-02T04:31:43.320Z,101479.20
2018-11-02T04:35:47.718Z,101489.98
2018-11-02T04:39:51.836Z,101501.44
2018-11-02T04:43:56.391Z,101507.99
2018-11-02T04:48:01.192Z,101518.14
2018-11-02T04:52:05.835Z,101523.55
2018-11-02T04:56:10.094Z,101540.91
2018-11-02T05:00:14.179Z,101543.27
2018-11-02T05:04:18.356Z,101544.77
2018-11-02T05:08:22.404Z,101561.42
2018-11-02T05:12:26.436Z,101569.80
2018-11-02T05:16:30.435Z,101581.19
2018-11-02T05:20:34.574Z,101589.05
2018-11-02T05:24:39.174Z,101590.90
2018-11-02T05:28:43.308Z,101608.34
2018-11-02T05:32:47.291Z,101611.51
2018-11-02T05:36:51.597Z,101620.37
2018-11-02T05:40:55.820Z,101636.13
2018-11-02T05:44:59.820Z,101640.20
2018-11-02T05:49:04.121Z,101653.84
2018-11-02T05:53:08.040Z,101665.62
2018-11-02T05:57:11.898Z,101680.49
2018-11-02T06:01:15.758Z,101690.42
2018-11-02T06:05:19.967Z,101703.23
2018-11-02T06:09:24.204Z,101707.66
2018-11-02T06:13:28.554Z,101720.61
2018-11-02T06:17:32.557Z,101726.06
2018-11-02T06:21:36.748Z,101735.75
2018-11-02T06:25:40.850Z,101739.75
2018-11-02T06:29:44.944Z,101747.61
2018-11-02T06:33:49.375Z,101755.91
2018-11-02T06:37:53.717Z,101768.91
2018-11-02T06:41:57.911Z,101777.58
2018-11-02T06:46:02.948Z,101791.38
2018-11-02T06:50:07.387Z,101802.64
2018-11-02T06:54:13.606Z,101811.41
2018-11-02T06:58:17.986Z,101817.09
2018-11-02T07:02:22.783Z,101823.66
2018-11-02T07:06:26.798Z,101831.98
2018-11-02T07:10:30.836Z,101837.70
2018-11-02T07:14:35.932Z,101851.62
2018-11-02T07:18:40.140Z,101856.12
2018-11-02T07:22:44.190Z,101874.05
2018-11-02T07:26:48.357Z,101882.88
2018-11-02T07:30:52.423Z,101893.39
2018-11-02T07:34:56.388Z,101904.33
2018-11-02T07:39:00.451Z,101914.73
2018-11-02T07:43:06.441Z,101915.59
2018-11-02T07:47:10.581Z,101915.95
2018-11-02T07:51:14.954Z,101920.73
2018-11-02T07:55:19.020Z,101938.17
2018-11-02T07:59:23.486Z,101938.28
2018-11-02T08:03:27.521Z,101941.92
2018-11-02T08:07:31.928Z,101949.29
2018-11-02T08:11:36.470Z,101962.11
2018-11-02T08:15:40.956Z,101964.78
2018-11-02T08:19:45.180Z,101972.13
2018-11-02T08:23:49.316Z,101980.07
2018-11-02T08:27:53.771Z,101989.11
2018-11-02T08:31:57.843Z,102000.13
2018-11-02T08:36:03.208Z,102001.59
2018-11-02T08:40:09.627Z,102004.84
2018-11-02T08:44:13.756Z,102012.87
2018-11-02T08:48:17.755Z,102017.05
2018-11-02T08:52:22.094Z,102021.42
2018-11-02T08:56:26.164Z,102033.95
2018-11-02T09:00:30.221Z,102028.95
2018-11-02T09:04:34.388Z,102037.45
2018-11-02T09:08:38.569Z,102038.36
2018-11-02T09:12:42.716Z,102033.77
2018-11-02T09:16:46.966Z,102036.87
2018-11-02T09:20:51.098Z,102041.56
2018-11-02T09:24:55.734Z,102060.71
2018-11-02T09:29:00.093Z,102061.80
2018-11-02T09:33:05.617Z,102065.03
2018-11-02T09:37:09.680Z,102084.73
2018-11-02T09:41:13.615Z,102083.84
2018-11-02T09:45:18.091Z,102083.27
2018-11-02T09:49:22.506Z,102081.49
2018-11-02T09:53:26.414Z,102089.06
2018-11-02T09:57:30.366Z,102094.79
2018-11-02T10:01:34.300Z,102099.39
2018-11-02T10:05:38.251Z,102098.95
2018-11-02T10:09:42.107Z,102097.96
2018-11-02T10:13:46.435Z,102096.22
2018-11-02T10:17:50.276Z,102097.69
2018-11-02T10:21:54.179Z,102108.84
2018-11-02T10:25:58.159Z,102113.93
2018-11-02T10:30:02.277Z,102117.28
2018-11-02T10:34:08.058Z,102117.75
2018-11-02T10:38:12.804Z,102115.50
2018-11-02T10:42:18.333Z,102109.81
2018-11-02T10:46:22.753Z,102117.52
2018-11-02T10:50:27.148Z,102129.56
2018-11-02T10:54:31.835Z,102127.36
2018-11-02T10:58:36.241Z,102139.94
2018-11-02T11:02:40.776Z,102145.06
2018-11-02T11:06:44.764Z,102145.92
2018-11-02T11:10:49.284Z,102145.97
2018-11-02T11:14:54.073Z,102148.05
2018-11-02T11:18:58.394Z,102148.41
2018-11-02T11:23:02.998Z,102151.05
2018-11-02T11:27:07.349Z,102163.38
2018-11-02T11:31:12.210Z,102167.00
2018-11-02T11:35:17.537Z,102175.98
2018-11-02T11:39:21.745Z,102179.59
2018-11-02T11:43:25.645Z,102192.72
2018-11-02T11:47:30.659Z,102184.86
2018-11-02T11:51:34.551Z,102185.44
2018-11-02T11:55:38.663Z,102202.16
2018-11-02T11:59:42.555Z,102201.50
2018-11-02T12:03:46.894Z,102185.42
2018-11-02T12:07:50.761Z,102184.09
2018-11-02T12:11:54.626Z,102181.44
2018-11-02T12:15:58.567Z,102182.97
2018-11-02T12:20:02.425Z,102196.76
2018-11-02T12:24:06.729Z,102206.78
2018-11-02T12:28:11.420Z,102210.80
2018-11-02T12:32:15.255Z,102221.66
2018-11-02T12:36:19.220Z,102226.97
2018-11-02T12:40:23.971Z,102226.98
2018-11-02T12:44:28.752Z,102236.61
2018-11-02T12:48:32.709Z,102232.45
2018-11-02T12:52:36.974Z,102236.50
2018-11-02T12:56:40.855Z,102245.19
2018-11-02T13:00:44.788Z,102247.32
2018-11-02T13:04:48.649Z,102240.89
2018-11-02T13:08:52.579Z,102245.64
2018-11-02T13:12:56.640Z,102242.90
2018-11-02T13:17:00.496Z,102248.59
2018-11-02T13:21:05.345Z,102260.89
2018-11-02T13:25:10.915Z,102265.05
2018-11-02T13:29:14.775Z,102277.69
2018-11-02T13:33:18.853Z,102278.78
2018-11-02T13:37:23.676Z,102285.38
2018-11-02T13:41:27.675Z,102286.93
2018-11-02T13:45:31.617Z,102287.52
2018-11-02T13:49:35.513Z,102286.97
2018-11-02T13:53:39.807Z,102302.78
2018-11-02T13:57:43.820Z,102310.38
2018-11-02T14:01:48.631Z,102327.93
2018-11-02T14:05:52.745Z,102342.81
2018-11-02T14:09:56.584Z,102342.10
2018-11-02T14:14:00.448Z,102350.31
2018-11-02T14:18:05.457Z,102352.94
2018-11-02T14:22:09.594Z,102358.14
2018-11-02T14:26:14.092Z,102364.93
2018-11-02T14:30:18.234Z,102379.76
2018-11-02T14:34:22.228Z,102392.17
2018-11-02T14:38:26.425Z,102393.55
2018-11-02T14:42:30.384Z,102403.56
2018-11-02T14:46:34.463Z,102408.44
2018-11-02T14:50:38.198Z,102416.23
2018-11-02T14:54:42.096Z,102423.19
2018-11-02T14:58:45.956Z,102430.80
2018-11-02T15:02:49.871Z,102432.42
2018-11-02T15:06:53.783Z,102431.60
2018-11-02T15:10:57.952Z,102437.35
2018-11-02T15:15:01.866Z,102443.39
2018-11-02T15:19:05.956Z,102448.53
2018-11-02T15:23:10.020Z,102457.98
2018-11-02T15:27:14.292Z,102463.03
2018-11-02T15:31:18.175Z,102464.44
2018-11-02T15:35:22.037Z,102467.63
2018-11-02T15:39:26.009Z,102467.36
2018-11-02T15:43:29.920Z,102467.45
2018-11-02T15:47:34.009Z,102473.50
2018-11-02T15:51:38.464Z,102474.74
2018-11-02T15:55:42.438Z,102481.95
2018-11-02T15:59:47.312Z,102499.95
2018-11-02T16:03:51.362Z,102507.44
2018-11-02T16:07:55.243Z,102516.19
2018-11-02T16:11:59.087Z,102519.05
2018-11-02T16:16:04.079Z,102527.08
2018-11-02T16:20:10.431Z,102527.61
2018-11-02T16:24:14.584Z,102534.27
2018-11-02T16:28:18.548Z,102532.48
2018-11-02T16:32:23.193Z,102536.97
2018-11-02T16:36:27.284Z,102548.98
2018-11-02T16:40:35.458Z,102551.31
2018-11-02T16:44:40.450Z,102558.95
2018-11-02T16:48:45.410Z,102565.20
2018-11-02T16:52:49.271Z,102571.40
2018-11-02T16:56:53.407Z,102579.26
2018-11-02T17:00:57.302Z,102588.88
2018-11-02T17:05:02.479Z,102589.34
2018-11-02T17:09:09.012Z,102595.03
2018-11-02T17:13:13.214Z,102601.28
2018-11-02T17:17:17.131Z,102608.28
2018-11-02T17:21:21.065Z,102620.58
2018-11-02T17:25:24.996Z,102624.68
2018-11-02T17:29:29.199Z,102630.41
2018-11-02T17:33:33.576Z,102625.66
2018-11-02T17:37:38.460Z,102635.34
2018-11-02T17:41:42.611Z,102643.26
2018-11-02T17:45:46.465Z,102654.23
2018-11-02T17:49:50.667Z,102660.85
2018-11-02T17:53:54.591Z,102666.99
2018-11-02T17:57:58.479Z,102658.75
2018-11-02T18:02:02.483Z,102671.81
2018-11-02T18:06:06.561Z,102684.02
2018-11-02T18:10:12.278Z,102688.81
2018-11-02T18:14:16.299Z,102699.30
2018-11-02T18:18:20.232Z,102705.83
2018-11-02T18:22:24.166Z,102710.18
2018-11-02T18:26:28.115Z,102709.77
2018-11-02T18:30:32.030Z,102711.50
2018-11-02T18:34:36.130Z,102720.23
2018-11-02T18:38:40.092Z,102729.40
2018-11-02T18:42:44.214Z,102727.23
2018-11-02T18:46:48.684Z,102742.48
2018-11-02T18:50:52.594Z,102738.56
2018-11-02T18:54:56.443Z,102752.48
2018-11-02T18:59:00.309Z,102757.28
2018-11-02T19:03:04.972Z,102757.70
2018-11-02T19:07:09.120Z,102766.38
2018-11-02T19:11:13.056Z,102769.88
2018-11-02T19:15:18.644Z,102771.61
2018-11-02T19:19:22.510Z,102776.81
2018-11-02T19:23:26.413Z,102779.83
2018-11-02T19:27:30.328Z,102775.89
2018-11-02T19:31:34.187Z,102779.37
2018-11-02T19:35:38.133Z,102787.16
2018-11-02T19:39:42.211Z,102792.37
2018-11-02T19:43:47.728Z,102797.13
2018-11-02T19:47:59.890Z,102798.42
2018-11-02T19:52:03.766Z,102798.84
2018-11-02T19:56:07.620Z,102795.78
2018-11-02T20:00:13.878Z,102791.41
2018-11-02T20:04:17.755Z,102803.11
2018-11-02T20:08:22.371Z,102808.29
2018-11-02T20:12:27.203Z,102820.87
2018-11-02T20:16:31.604Z,102814.34
2018-11-02T20:20:35.650Z,102814.77
2018-11-02T20:24:39.580Z,102810.83
2018-11-02T20:28:43.549Z,102812.11
2018-11-02T20:32:48.305Z,102811.65
2018-11-02T20:36:52.151Z,102819.42
2018-11-02T20:40:56.094Z,102827.19
2018-11-02T20:45:00.132Z,102831.09
2018-11-02T20:49:04.868Z,102838.44
2018-11-02T20:53:09.089Z,102843.13
2018-11-02T20:57:12.937Z,102841.77
2018-11-02T21:01:17.079Z,102831.76
2018-11-02T21:05:21.583Z,102844.71
2018-11-02T21:09:25.990Z,102850.34
2018-11-02T21:13:29.727Z,102849.44
2018-11-02T21:17:33.688Z,102848.94
2018-11-02T21:21:37.577Z,102860.58
2018-11-02T21:25:41.767Z,102859.67
2018-11-02T21:29:45.671Z,102857.40
2018-11-02T21:33:49.987Z,102868.64
2018-11-02T21:37:53.720Z,102880.30
2018-11-02T21:41:57.959Z,102882.48
2018-11-02T21:46:01.839Z,102879.02
2018-11-02T21:50:06.377Z,102884.66
2018-11-02T21:54:10.456Z,102889.39
2018-11-02T21:58:14.360Z,102889.78
2018-11-02T22:02:18.229Z,102890.14
2018-11-02T22:06:22.458Z,102885.30
2018-11-02T22:10:26.363Z,102887.00
2018-11-02T22:14:30.321Z,102896.05
2018-11-02T22:18:34.215Z,102898.17
2018-11-02T22:22:38.383Z,102892.06
2018-11-02T22:26:42.313Z,102882.91
2018-11-02T22:30:46.222Z,102888.52
2018-11-02T22:34:50.264Z,102901.53
2018-11-02T22:38:54.329Z,102912.34
2018-11-02T22:42:58.237Z,102917.05
2018-11-02T22:47:02.520Z,102924.39
2018-11-02T22:51:06.419Z,102926.49
2018-11-02T22:55:10.567Z,102929.03
2018-11-02T22:59:14.392Z,102926.84
2018-11-02T23:03:18.260Z,102923.34
2018-11-02T23:07:23.434Z,102928.08
2018-11-02T23:11:27.348Z,102916.84
2018-11-02T23:15:31.195Z,102912.94
2018-11-02T23:19:35.176Z,102910.30
2018-11-02T23:23:39.233Z,102902.47
2018-11-02T23:27:44.250Z,102900.73
2018-11-02T23:31:48.192Z,102908.56
2018-11-02T23:35:52.120Z,102906.86
2018-11-02T23:39:56.078Z,102908.63
2018-11-02T23:43:59.928Z,102909.44
2018-11-02T23:48:09.076Z,102918.88
2018-11-02T23:52:12.959Z,102908.47
2018-11-02T23:56:17.119Z,102905.38
